Time;durP1;ratioP1;P1;durP2;ratioP2;P2;SDS_P1;SDS_P2;PMS_P1;PMS_P2;Temp;Humidity;BMP_temperature;BMP_pressure;BME280_temperature;BME280_humidity;BME280_pressure;Samples;Min_cycle;Max_cycle;Signal;HPM_P1;HPM_P2
2022/01/06 00:01:24;;;;;;;1.30;1.20;;;;;;;15.17;49.04;96146.84;4857113;29;20735;-88
2022/01/06 00:03:52;;;;;;;1.47;1.30;;;;;;;12.36;49.01;95693.75;4824242;29;20227;-86
2022/01/06 00:06:24;;;;;;;1.40;1.30;;;;;;;17.90;49.29;96659.31;4864360;29;20211;-86
2022/01/06 00:08:54;;;;;;;1.50;1.40;;;;;;;17.69;48.91;96572.28;4829294;29;20206;-87
2022/01/06 00:11:21;;;;;;;1.43;1.33;;;;;;;14.11;49.02;96021.97;4829098;29;20219;-87
2022/01/06 00:13:56;;;;;;;1.70;1.40;;;;;;;14.68;48.72;96055.91;4841333;29;20226;-86
2022/01/06 00:24:26;;;;;;;1.90;1.33;;;;;;;14.45;48.44;96034.94;4863576;29;20207;-85
2022/01/06 00:26:53;;;;;;;1.57;1.40;;;;;;;14.77;48.86;96078.13;4825616;29;20220;-84
2022/01/06 00:29:26;;;;;;;1.43;1.30;;;;;;;19.41;48.95;96892.00;4835483;29;20218;-89
2022/01/06 00:31:53;;;;;;;1.57;1.47;;;;;;;14.25;49.43;96008.16;4825795;29;20222;-87
2022/01/06 00:34:20;;;;;;;1.37;1.27;;;;;;;19.38;48.79;96879.16;4826475;29;20206;-87
2022/01/06 00:36:47;;;;;;;1.43;1.33;;;;;;;8.79;48.45;95147.72;4828078;29;20736;-87
2022/01/06 00:39:13;;;;;;;1.63;1.33;;;;;;;19.41;49.19;96880.91;4829566;29;20208;-86
2022/01/06 00:41:40;;;;;;;1.57;1.43;;;;;;;13.52;49.04;95953.41;4840225;29;20237;-84
2022/01/06 00:44:10;;;;;;;1.90;1.27;;;;;;;17.85;49.21;96656.66;4832355;29;20733;-86
2022/01/06 00:46:37;;;;;;;1.27;1.17;;;;;;;12.64;49.09;95736.72;4840938;29;20238;-86
2022/01/06 00:49:07;;;;;;;1.57;1.47;;;;;;;14.37;49.14;96156.78;4826580;29;20226;-86
2022/01/06 00:51:37;;;;;;;2.20;1.40;;;;;;;13.73;49.16;95928.03;4859386;29;20560;-86
2022/01/06 00:54:03;;;;;;;1.30;1.17;;;;;;;13.17;49.49;95915.97;4827563;29;20213;-89
2022/01/06 00:56:30;;;;;;;1.70;1.50;;;;;;;19.00;49.36;96810.97;4835306;29;20243;-86
2022/01/06 00:58:57;;;;;;;1.47;1.27;;;;;;;17.62;49.37;96585.66;4851194;29;20223;-81
2022/01/06 01:01:24;;;;;;;1.83;1.40;;;;;;;20.31;49.65;97046.63;4835674;29;20230;-82
2022/01/06 01:03:51;;;;;;;1.50;1.30;;;;;;;19.06;49.27;96845.94;4824888;29;20218;-78
2022/01/06 01:06:17;;;;;;;1.87;1.30;;;;;;;16.64;49.24;96496.22;4841061;29;20298;-78
2022/01/06 01:08:44;;;;;;;1.30;1.20;;;;;;;18.80;49.30;96790.88;4825062;29;20203;-80
2022/01/06 01:11:11;;;;;;;1.97;1.40;;;;;;;12.79;48.92;95912.00;4834502;29;20210;-79
2022/01/06 01:13:54;;;;;;;1.83;1.33;;;;;;;17.93;49.02;96644.16;4827004;29;20589;-80
2022/01/06 01:16:29;;;;;;;1.40;1.30;;;;;;;20.28;49.22;97043.97;4836198;29;20245;-80
2022/01/06 01:18:57;;;;;;;1.40;1.30;;;;;;;18.35;49.23;96719.16;4834456;29;20206;-86
2022/01/06 01:21:28;;;;;;;1.63;1.47;;;;;;;17.60;49.14;96599.97;4831759;29;20228;-86
2022/01/06 01:23:55;;;;;;;1.87;1.40;;;;;;;20.26;49.14;97076.28;4841573;29;20543;-87
2022/01/06 01:26:22;;;;;;;1.50;1.40;;;;;;;18.36;49.05;96730.19;4830430;29;20215;-86
2022/01/06 01:28:52;;;;;;;1.40;1.30;;;;;;;19.56;49.22;96937.41;4843596;29;20215;-86
2022/01/06 01:33:51;;;;;;;1.53;1.43;;;;;;;14.38;49.22;96065.88;4842365;29;20694;-88
2022/01/06 01:36:21;;;;;;;1.43;1.30;;;;;;;13.85;48.98;96087.50;4845471;29;20207;-87
2022/01/06 01:38:48;;;;;;;1.10;1.10;;;;;;;16.30;49.06;96394.53;4830401;29;20230;-82
2022/01/06 01:41:17;;;;;;;1.30;1.20;;;;;;;11.11;48.96;95538.97;4828637;29;20336;-79
2022/01/06 01:43:47;;;;;;;1.77;1.47;;;;;;;11.91;49.36;95760.03;4823705;29;20233;-83
2022/01/06 01:46:17;;;;;;;1.63;1.53;;;;;;;20.22;48.93;97086.34;4823911;29;20230;-82
2022/01/06 01:48:58;;;;;;;1.50;1.20;;;;;;;18.96;49.38;96895.75;4825479;29;20218;-89
2022/01/06 01:51:25;;;;;;;1.50;1.30;;;;;;;12.87;49.38;95967.75;4828743;29;20212;-88
2022/01/06 01:53:52;;;;;;;1.70;1.40;;;;;;;16.20;49.64;96402.66;4830173;29;20211;-87
2022/01/06 01:56:19;;;;;;;1.67;1.50;;;;;;;17.19;49.60;96615.56;4849531;29;20267;-90
2022/01/06 01:58:45;;;;;;;2.83;1.57;;;;;;;9.15;49.21;95336.19;4828272;29;20255;-87
2022/01/06 02:01:12;;;;;;;1.50;1.40;;;;;;;19.64;49.38;96994.56;4830329;29;20207;-88
2022/01/06 02:03:39;;;;;;;1.43;1.33;;;;;;;15.22;49.43;96223.78;4828037;29;20591;-88
2022/01/06 02:06:06;;;;;;;1.77;1.50;;;;;;;12.52;49.30;95859.72;4843874;29;20208;-88
2022/01/06 02:08:33;;;;;;;1.70;1.40;;;;;;;16.08;49.55;96379.47;4838911;29;20211;-87
2022/01/06 02:11:06;;;;;;;1.77;1.30;;;;;;;16.61;49.39;96475.84;4832419;29;20215;-81
2022/01/06 02:13:32;;;;;;;1.20;1.20;;;;;;;15.05;49.43;96204.66;4850079;29;20214;-78
2022/01/06 02:16:01;;;;;;;1.37;1.20;;;;;;;19.57;49.33;97161.75;4838877;29;20216;-80
2022/01/06 02:18:28;;;;;;;1.40;1.20;;;;;;;20.20;49.56;97106.72;4836913;29;20215;-82
2022/01/06 02:20:57;;;;;;;1.90;1.47;;;;;;;19.23;49.39;96931.31;4825725;29;20204;-79
2022/01/06 02:23:24;;;;;;;1.40;1.30;;;;;;;20.19;49.39;97099.88;4840738;29;20238;-78
2022/01/06 02:25:54;;;;;;;2.37;1.40;;;;;;;15.65;49.64;96341.72;4839814;29;20673;-79
2022/01/06 02:28:22;;;;;;;1.30;1.20;;;;;;;20.18;49.59;97108.34;4827027;29;20295;-79
2022/01/06 02:30:51;;;;;;;1.20;1.10;;;;;;;18.88;49.43;96894.66;4833825;29;20311;-85
2022/01/06 02:33:18;;;;;;;1.73;1.43;;;;;;;17.81;49.64;96709.88;4825091;29;20204;-79
2022/01/06 02:35:47;;;;;;;1.87;1.40;;;;;;;20.17;49.76;97111.75;4826008;29;20272;-82
2022/01/06 02:38:14;;;;;;;1.90;1.50;;;;;;;20.16;49.96;97109.97;4837883;29;20326;-79
2022/01/06 02:40:44;;;;;;;1.40;1.30;;;;;;;17.68;49.90;96716.25;4818519;29;20211;-79
2022/01/06 02:43:13;;;;;;;1.50;1.30;;;;;;;20.14;49.75;97126.97;4824698;29;20644;-79
2022/01/06 02:45:40;;;;;;;1.30;1.20;;;;;;;19.53;49.97;97001.91;4827826;29;20298;-79
2022/01/06 02:48:10;;;;;;;1.80;1.60;;;;;;;14.41;49.56;96242.88;4837112;29;20243;-82
2022/01/06 02:50:38;;;;;;;1.47;1.30;;;;;;;20.02;50.03;97097.66;4818219;29;20636;-79
2022/01/06 02:53:06;;;;;;;1.30;1.20;;;;;;;19.39;49.79;96994.69;4824448;29;20239;-79
2022/01/06 02:55:50;;;;;;;1.67;1.27;;;;;;;20.10;50.45;97127.63;4830112;29;20222;-83
2022/01/06 02:58:36;;;;;;;1.70;1.50;;;;;;;20.09;50.03;97127.59;4846331;29;20644;-83
2022/01/06 03:01:03;;;;;;;1.57;1.30;;;;;;;20.08;49.94;97130.97;4839920;29;20207;-79
2022/01/06 03:03:30;;;;;;;1.33;1.23;;;;;;;18.78;49.79;96907.06;4820291;29;20226;-79
2022/01/06 03:05:57;;;;;;;1.63;1.40;;;;;;;20.07;49.83;97142.00;4824915;29;20515;-81
2022/01/06 03:08:25;;;;;;;1.53;1.30;;;;;;;19.72;49.80;97082.34;4825176;29;20242;-81
2022/01/06 03:10:54;;;;;;;1.47;1.37;;;;;;;19.47;49.65;97042.50;4836990;29;20211;-88
2022/01/06 03:13:21;;;;;;;1.57;1.43;;;;;;;15.52;49.82;96394.44;4847562;29;20204;-86
2022/01/06 03:15:49;;;;;;;1.73;1.40;;;;;;;11.43;49.83;95715.34;4829052;29;20584;-86
2022/01/06 03:18:16;;;;;;;1.53;1.27;;;;;;;15.96;49.98;96629.88;4828581;29;20231;-90
2022/01/06 03:20:45;;;;;;;1.40;1.30;;;;;;;18.71;49.63;96917.88;4836882;29;20240;-87
2022/01/06 03:23:16;;;;;;;1.57;1.27;;;;;;;16.20;50.24;96493.91;4854296;29;20779;-86
2022/01/06 03:25:43;;;;;;;2.00;1.53;;;;;;;15.20;49.97;96362.91;4830412;29;20250;-87
2022/01/06 03:28:10;;;;;;;2.30;1.50;;;;;;;15.07;49.91;96443.38;4841125;29;20283;-91
2022/01/06 03:30:40;;;;;;;1.90;1.40;;;;;;;17.68;50.13;96753.50;4832350;29;20241;-86
2022/01/06 03:33:12;;;;;;;1.80;1.40;;;;;;;19.37;50.30;97067.66;4824870;29;20678;-79
2022/01/06 03:35:38;;;;;;;1.10;1.10;;;;;;;14.17;50.33;96151.00;4823409;29;20229;-79
2022/01/06 03:38:05;;;;;;;1.97;1.60;;;;;;;15.48;50.39;96395.16;4841037;29;20254;-80
2022/01/06 03:40:34;;;;;;;1.70;1.30;;;;;;;13.97;50.32;96146.88;4828854;29;20211;-81
2022/01/06 03:43:01;;;;;;;2.03;1.40;;;;;;;18.94;50.85;96993.25;4823318;29;20275;-84
2022/01/06 03:45:28;;;;;;;1.40;1.30;;;;;;;12.31;50.45;95884.09;4825992;29;20286;-78
2022/01/06 03:47:55;;;;;;;1.40;1.30;;;;;;;18.71;50.01;96938.25;4876379;24;20332;-84
2022/01/06 03:55:46;;;;;;;1.40;1.30;;;;;;;15.73;50.07;96455.94;3206946;27;20186;-88
2022/01/06 03:58:16;;;;;;;2.07;1.57;;;;;;;15.89;50.13;96512.25;4904813;29;20182;-90
2022/01/06 04:00:46;;;;;;;1.57;1.47;;;;;;;15.85;50.07;96485.09;4892128;29;20413;-89
2022/01/06 04:03:35;;;;;;;1.20;1.10;;;;;;;14.46;50.36;96254.00;4897798;29;20190;-90
2022/01/06 04:06:50;;;;;;;1.50;1.40;;;;;;;19.98;50.38;97180.84;4898427;29;20166;-89
2022/01/06 04:09:24;;;;;;;1.40;1.30;;;;;;;15.27;50.18;96478.72;5118354;24;20235;-89
2022/01/06 04:17:21;;;;;;;1.33;1.23;;;;;;;16.11;50.50;96534.16;5233149;23;20205;-90
2022/01/06 04:19:50;;;;;;;1.40;1.30;;;;;;;18.45;50.20;97025.59;4890009;29;20214;-84
2022/01/06 04:22:17;;;;;;;1.50;1.40;;;;;;;18.79;50.34;96998.75;4883728;29;20606;-84
2022/01/06 04:24:45;;;;;;;1.20;1.10;;;;;;;12.55;50.15;95901.03;4859117;29;20504;-83
2022/01/06 04:27:11;;;;;;;1.50;1.40;;;;;;;15.38;50.17;96388.88;4861902;29;20707;-85
2022/01/06 04:29:38;;;;;;;1.20;1.10;;;;;;;15.28;50.27;96413.78;4867814;29;20610;-84
2022/01/06 04:32:06;;;;;;;1.63;1.30;;;;;;;15.85;50.13;96548.44;4895544;29;20261;-84
2022/01/06 04:34:33;;;;;;;1.40;1.30;;;;;;;17.83;50.32;96827.69;4874558;29;20582;-84
2022/01/06 04:37:01;;;;;;;1.60;1.50;;;;;;;16.82;50.30;96643.13;4858334;29;20244;-85
2022/01/06 04:39:28;;;;;;;1.50;1.40;;;;;;;19.99;50.15;97195.34;4863835;29;20664;-84
2022/01/06 04:41:54;;;;;;;1.77;1.40;;;;;;;19.04;50.29;97052.16;4866724;29;20257;-83
2022/01/06 04:44:21;;;;;;;1.47;1.30;;;;;;;18.48;49.68;96931.56;4868838;29;20210;-83
2022/01/06 04:46:48;;;;;;;1.30;1.20;;;;;;;20.02;50.33;97199.66;4862354;29;20222;-84
2022/01/06 04:49:17;;;;;;;1.30;1.20;;;;;;;17.90;49.94;96847.41;4862920;29;20214;-83
2022/01/06 04:51:44;;;;;;;1.90;1.40;;;;;;;19.52;50.08;97132.72;4882278;29;20209;-85
2022/01/06 04:54:13;;;;;;;1.50;1.40;;;;;;;15.37;50.07;96544.06;4876868;29;20194;-84
2022/01/06 04:56:40;;;;;;;1.40;1.30;;;;;;;15.85;49.95;96509.56;4883947;29;20255;-85
2022/01/06 04:59:10;;;;;;;1.23;1.20;;;;;;;20.00;50.20;97332.25;4869788;29;20581;-84
2022/01/06 05:01:37;;;;;;;1.27;1.20;;;;;;;13.50;50.18;96199.75;4867996;29;20683;-82
2022/01/06 05:04:04;;;;;;;2.30;1.30;;;;;;;15.71;50.31;96572.38;4868230;29;20618;-85
2022/01/06 05:06:33;;;;;;;1.57;1.40;;;;;;;15.80;49.85;96503.47;4864706;29;20214;-84
2022/01/06 05:09:03;;;;;;;1.53;1.43;;;;;;;18.56;50.28;96978.47;4883965;29;20683;-84
2022/01/06 05:11:30;;;;;;;1.50;1.40;;;;;;;17.61;50.42;96822.72;4900299;29;20206;-84
2022/01/06 05:13:57;;;;;;;1.53;1.30;;;;;;;18.99;50.22;97068.13;4898600;29;20242;-84
2022/01/06 05:16:24;;;;;;;1.30;1.20;;;;;;;19.94;50.62;97233.47;4875313;29;20209;-84
2022/01/06 05:18:53;;;;;;;2.07;1.60;;;;;;;19.92;50.42;97232.53;4871810;29;20237;-84
2022/01/06 05:21:19;;;;;;;1.30;1.20;;;;;;;19.93;50.85;97228.31;4867827;29;20218;-83
2022/01/06 05:23:48;;;;;;;1.67;1.50;;;;;;;19.92;50.58;97235.09;4867687;29;20226;-84
2022/01/06 05:26:15;;;;;;;1.50;1.40;;;;;;;14.97;50.36;96414.34;4866233;29;20205;-84
2022/01/06 05:28:42;;;;;;;1.80;1.37;;;;;;;12.71;50.23;96044.41;4865932;29;20226;-83
2022/01/06 05:31:09;;;;;;;1.73;1.20;;;;;;;15.67;50.04;96564.63;4882568;29;20304;-83
2022/01/06 05:33:39;;;;;;;1.57;1.40;;;;;;;16.43;50.53;96663.75;4868991;29;20214;-84
2022/01/06 05:36:06;;;;;;;1.40;1.30;;;;;;;14.02;50.59;96232.91;4883328;29;20341;-84
2022/01/06 05:38:33;;;;;;;1.43;1.33;;;;;;;15.40;50.65;96477.53;4868221;29;20304;-84
2022/01/06 05:40:59;;;;;;;1.40;1.30;;;;;;;15.20;50.55;96440.47;4867130;29;20300;-84
2022/01/06 05:43:27;;;;;;;1.40;1.30;;;;;;;16.59;50.77;96685.47;4873388;29;20236;-84
2022/01/06 05:45:56;;;;;;;1.40;1.30;;;;;;;18.27;50.58;96991.88;4882227;29;20480;-84
2022/01/06 05:48:23;;;;;;;2.23;1.30;;;;;;;19.11;50.56;97133.06;4867084;29;20236;-83
2022/01/06 05:50:51;;;;;;;1.33;1.20;;;;;;;19.84;50.59;97279.88;4868122;29;20584;-83
2022/01/06 05:53:18;;;;;;;2.00;1.50;;;;;;;19.43;50.56;97208.88;4867518;29;20315;-82
2022/01/06 05:55:45;;;;;;;1.40;1.30;;;;;;;19.30;50.33;97165.13;4867476;29;20209;-85
2022/01/06 05:58:11;;;;;;;2.20;1.60;;;;;;;19.65;50.45;97233.34;4872718;29;20242;-84
2022/01/06 06:00:38;;;;;;;1.50;1.40;;;;;;;19.05;50.93;97130.31;4869695;29;20205;-83
2022/01/06 06:03:05;;;;;;;1.50;1.40;;;;;;;18.66;50.46;97064.47;4871282;29;20699;-83
2022/01/06 06:05:32;;;;;;;1.53;1.30;;;;;;;17.80;50.81;96924.19;4872980;29;20269;-83
2022/01/06 06:07:59;;;;;;;1.60;1.50;;;;;;;19.01;50.86;97141.19;4868327;29;20631;-83
2022/01/06 06:10:26;;;;;;;1.47;1.37;;;;;;;15.47;50.91;96533.50;4867282;29;20603;-85
2022/01/06 06:12:53;;;;;;;1.40;1.30;;;;;;;14.14;50.44;96301.56;4869191;29;20679;-84
2022/01/06 06:15:20;;;;;;;1.57;1.33;;;;;;;19.82;50.82;97285.75;4868175;29;20657;-83
2022/01/06 06:17:47;;;;;;;1.40;1.20;;;;;;;18.90;50.84;97187.50;4868355;29;20242;-83
2022/01/06 06:20:14;;;;;;;2.00;1.50;;;;;;;19.82;50.84;97317.25;4868885;29;20214;-83
2022/01/06 06:22:41;;;;;;;1.50;1.40;;;;;;;19.80;50.86;97302.69;4863659;29;20234;-83
2022/01/06 06:25:08;;;;;;;1.70;1.37;;;;;;;17.96;50.83;96967.97;4871617;29;20248;-84
2022/01/06 06:27:35;;;;;;;1.60;1.43;;;;;;;16.55;50.96;96761.38;4887055;29;20226;-84
2022/01/06 06:30:03;;;;;;;1.50;1.40;;;;;;;13.21;50.58;96182.63;4866483;29;20210;-84
2022/01/06 06:32:33;;;;;;;1.50;1.40;;;;;;;13.97;51.07;96365.72;4867887;29;20308;-83
2022/01/06 06:35:00;;;;;;;1.80;1.43;;;;;;;17.16;50.99;96865.13;4865294;29;20690;-84
2022/01/06 06:37:27;;;;;;;1.50;1.40;;;;;;;19.78;51.01;97294.13;4883258;29;20229;-82
2022/01/06 06:39:54;;;;;;;1.43;1.30;;;;;;;18.50;50.78;97077.50;4865140;29;20216;-83
2022/01/06 06:42:21;;;;;;;1.27;1.17;;;;;;;15.66;50.38;96598.38;4898870;29;20277;-84
2022/01/06 06:44:48;;;;;;;1.40;1.30;;;;;;;18.21;50.79;97077.31;4868581;29;20214;-82
2022/01/06 06:47:14;;;;;;;1.50;1.40;;;;;;;19.76;50.83;97299.19;4869635;29;20233;-82
2022/01/06 06:49:44;;;;;;;1.43;1.20;;;;;;;16.45;50.73;96805.81;4869763;29;20209;-83
2022/01/06 06:52:16;;;;;;;1.67;1.40;;;;;;;19.75;51.07;97315.28;4870585;29;20240;-83
2022/01/06 06:54:43;;;;;;;1.60;1.40;;;;;;;16.26;50.61;96725.63;4865803;29;20236;-83
2022/01/06 06:57:10;;;;;;;1.57;1.43;;;;;;;19.75;50.97;97317.00;4861664;29;20657;-83
2022/01/06 06:59:36;;;;;;;1.30;1.20;;;;;;;18.93;51.24;97182.50;4869318;29;20210;-84
2022/01/06 07:02:03;;;;;;;1.43;1.30;;;;;;;17.96;51.04;97073.84;4871621;29;20209;-83
2022/01/06 07:04:33;;;;;;;1.33;1.23;;;;;;;11.55;50.48;96072.97;4860346;29;20670;-84
2022/01/06 07:07:09;;;;;;;1.20;1.10;;;;;;;14.13;51.05;96376.50;4867863;29;20745;-83
2022/01/06 07:09:36;;;;;;;1.40;1.30;;;;;;;15.48;50.47;96616.25;4874690;29;20673;-83
2022/01/06 07:12:04;;;;;;;1.30;1.20;;;;;;;15.51;51.08;96697.38;4870475;29;20258;-83
2022/01/06 07:14:32;;;;;;;1.50;1.40;;;;;;;14.30;50.36;96427.75;4866561;29;20664;-84
2022/01/06 07:17:00;;;;;;;1.37;1.27;;;;;;;17.06;50.81;96924.00;4867038;29;20648;-83
2022/01/06 07:19:26;;;;;;;1.63;1.20;;;;;;;16.83;51.10;96942.56;4871340;29;20301;-83
2022/01/06 07:21:53;;;;;;;1.30;1.20;;;;;;;18.51;50.65;97156.44;4867144;29;20225;-83
2022/01/06 07:24:26;;;;;;;1.30;1.20;;;;;;;14.27;51.13;96511.84;4886476;29;20214;-90
2022/01/06 07:30:04;;;;;;;2.10;1.50;;;;;;;18.45;50.87;97152.81;5619302;23;20219;-89
2022/01/06 07:38:13;;;;;;;1.17;1.07;;;;;;;19.72;50.90;97404.41;5029600;23;20230;-90
2022/01/06 07:43:36;;;;;;;1.57;1.23;;;;;;;14.92;50.96;96587.81;4917743;29;20232;-89
2022/01/06 07:46:04;;;;;;;1.00;1.00;;;;;;;18.52;51.11;97188.69;4851347;29;20210;-84
2022/01/06 07:48:47;;;;;;;1.23;1.13;;;;;;;19.73;51.26;97390.00;4860173;29;20261;-84
2022/01/06 07:51:32;;;;;;;1.40;1.30;;;;;;;18.18;51.01;97142.50;4910529;29;20261;-88
2022/01/06 07:54:13;;;;;;;1.20;1.10;;;;;;;13.86;50.92;96409.88;4869171;29;20188;-90
2022/01/06 07:56:41;;;;;;;1.33;1.23;;;;;;;13.78;51.23;96431.41;4849716;29;20206;-90
2022/01/06 07:59:22;;;;;;;1.33;1.23;;;;;;;15.63;51.04;96687.72;4930330;24;20294;-89
2022/01/06 08:04:31;;;;;;;1.40;1.30;;;;;;;14.98;50.83;96670.69;3296330;27;20210;-89
2022/01/06 08:09:47;;;;;;;1.40;1.30;;;;;;;14.63;50.90;96606.88;2326182;27;20250;-89
2022/01/06 08:12:13;;;;;;;1.27;1.23;;;;;;;12.43;50.93;96151.56;4924388;29;20186;-88
2022/01/06 08:14:40;;;;;;;1.50;1.40;;;;;;;16.89;50.67;96921.63;4906214;29;20182;-82
2022/01/06 08:17:07;;;;;;;3.63;2.20;;;;;;;18.82;47.29;97250.88;4881134;29;20217;-82
2022/01/06 08:19:35;;;;;;;6.73;2.63;;;;;;;19.43;44.63;97366.00;4887969;29;20205;-88
2022/01/06 08:22:02;;;;;;;5.57;2.93;;;;;;;15.60;42.92;96743.31;4921279;29;20212;-88
2022/01/06 08:24:28;;;;;;;4.57;3.30;;;;;;;16.33;42.01;96869.56;4890402;29;20210;-90
2022/01/06 08:26:55;;;;;;;4.10;3.40;;;;;;;13.57;41.11;96450.72;4880660;29;20208;-89
2022/01/06 08:29:22;;;;;;;4.83;3.77;;;;;;;15.45;40.33;96724.13;4924769;29;20186;-89
2022/01/06 08:31:48;;;;;;;6.33;4.20;;;;;;;11.92;40.15;96078.84;4924432;29;20185;-87
2022/01/06 08:34:17;;;;;;;4.13;3.37;;;;;;;14.72;39.03;96554.97;4909170;29;20217;-89
2022/01/06 08:36:44;;;;;;;5.80;4.27;;;;;;;17.99;38.85;97184.16;4940823;29;20178;-88
2022/01/06 08:39:22;;;;;;;6.37;3.53;;;;;;;14.65;39.50;96685.31;4912218;29;20190;-90
2022/01/06 08:41:56;;;;;;;5.13;3.70;;;;;;;15.30;39.99;96741.16;4888877;29;20640;-82
2022/01/06 08:44:23;;;;;;;5.10;3.17;;;;;;;17.73;41.21;97171.25;4881195;29;20273;-82
2022/01/06 08:46:50;;;;;;;4.83;3.70;;;;;;;18.48;41.68;97239.44;4897983;29;20277;-82
2022/01/06 08:49:17;;;;;;;5.13;3.47;;;;;;;19.60;42.48;97438.84;4883098;29;20288;-82
2022/01/06 08:51:43;;;;;;;4.30;3.40;;;;;;;19.08;42.82;97356.19;4882631;29;20281;-81
2022/01/06 08:54:11;;;;;;;4.37;3.10;;;;;;;19.19;43.44;97376.16;4879696;29;20257;-82
2022/01/06 08:56:38;;;;;;;5.20;3.17;;;;;;;19.49;43.74;97425.72;4850922;29;20199;-79
2022/01/06 08:59:04;;;;;;;5.23;3.43;;;;;;;19.02;43.93;97351.78;4912251;29;20718;-82
2022/01/06 09:01:31;;;;;;;5.63;3.23;;;;;;;19.26;44.24;97389.97;4882647;29;20631;-82
2022/01/06 09:03:58;;;;;;;5.70;2.97;;;;;;;18.75;44.52;97306.59;4878959;29;20221;-82
2022/01/06 09:06:25;;;;;;;3.80;2.80;;;;;;;19.42;45.23;97413.53;4871585;29;20197;-81
2022/01/06 09:08:51;;;;;;;3.83;2.77;;;;;;;19.25;44.84;97391.69;4869847;29;20305;-82
2022/01/06 09:11:18;;;;;;;4.20;2.90;;;;;;;18.94;44.94;97337.00;4864577;29;20284;-81
2022/01/06 09:13:45;;;;;;;3.63;2.90;;;;;;;19.25;45.34;97386.59;4885909;29;20238;-82
2022/01/06 09:16:11;;;;;;;5.53;3.10;;;;;;;19.63;44.28;97460.19;4857169;29;20284;-82
2022/01/06 09:18:39;;;;;;;4.30;2.80;;;;;;;19.02;44.59;97359.41;4864506;29;20228;-83
2022/01/06 09:21:06;;;;;;;5.70;3.00;;;;;;;19.00;44.91;97352.50;4878799;29;20289;-83
2022/01/06 09:23:33;;;;;;;3.80;3.00;;;;;;;19.50;44.80;97446.94;4875910;29;20265;-83
2022/01/06 09:25:59;;;;;;;4.63;2.87;;;;;;;19.09;45.04;97365.56;4876605;29;20210;-84
2022/01/06 09:28:26;;;;;;;4.03;3.07;;;;;;;19.18;45.01;97388.81;4861619;29;20313;-81
2022/01/06 09:30:55;;;;;;;5.00;2.73;;;;;;;19.20;45.17;97392.31;4863594;29;20197;-82
2022/01/06 09:33:22;;;;;;;3.83;2.80;;;;;;;19.35;45.30;97420.91;4864211;29;20213;-83
2022/01/06 09:35:49;;;;;;;4.47;2.90;;;;;;;19.26;45.37;97407.81;4894506;29;20309;-82
2022/01/06 09:38:16;;;;;;;4.53;3.07;;;;;;;18.91;45.47;97347.94;4882663;29;20328;-82
2022/01/06 09:40:43;;;;;;;6.10;3.00;;;;;;;19.28;45.51;97411.34;4898050;29;20233;-82
2022/01/06 09:43:12;;;;;;;4.30;2.73;;;;;;;19.10;45.66;97378.34;4866682;29;20293;-82
2022/01/06 09:45:40;;;;;;;2.80;2.53;;;;;;;19.27;45.51;97413.00;4881672;29;20210;-81
2022/01/06 09:48:08;;;;;;;4.10;2.70;;;;;;;19.69;45.44;97497.81;4916032;24;20763;-81
2022/01/06 09:50:42;;;;;;;3.70;2.53;;;;;;;19.45;45.22;97449.34;4866593;29;20635;-80
2022/01/06 09:53:10;;;;;;;3.13;2.67;;;;;;;19.36;45.15;97453.25;4866250;29;20204;-81
2022/01/06 09:55:38;;;;;;;5.30;2.50;;;;;;;18.87;45.31;97352.88;4880819;29;20241;-79
2022/01/06 09:58:05;;;;;;;4.50;2.80;;;;;;;19.70;45.64;97497.84;4865195;29;20763;-81
2022/01/06 10:00:33;;;;;;;5.33;2.93;;;;;;;19.66;45.49;97498.53;4862398;29;20293;-84
2022/01/06 10:03:01;;;;;;;3.10;2.50;;;;;;;19.71;45.88;97503.81;4874965;29;20365;-80
2022/01/06 10:06:07;;;;;;;5.90;2.87;;;;;;;19.72;45.77;97497.91;4847500;29;20241;-80
2022/01/06 10:08:34;;;;;;;2.63;2.30;;;;;;;19.65;45.83;97491.72;4857414;29;20241;-81
2022/01/06 10:11:11;;;;;;;3.00;2.47;;;;;;;19.70;46.16;97502.97;4860299;29;20663;-80
2022/01/06 10:13:38;;;;;;;4.07;2.57;;;;;;;19.45;46.20;97461.22;4864307;29;20266;-81
2022/01/06 10:16:13;;;;;;;3.27;2.37;;;;;;;19.70;46.29;97510.59;4881625;29;20746;-79
2022/01/06 10:18:41;;;;;;;3.00;2.33;;;;;;;19.71;46.20;97504.69;4881380;29;20781;-79
2022/01/06 10:21:13;;;;;;;2.63;2.07;;;;;;;18.51;46.34;97316.75;4866378;29;20209;-81
2022/01/06 10:23:39;;;;;;;3.07;2.00;;;;;;;19.41;46.35;97456.81;4880091;29;20727;-80
2022/01/06 10:26:13;;;;;;;3.37;2.23;;;;;;;19.07;46.65;97396.06;4877581;29;20547;-83
2022/01/06 10:28:39;;;;;;;2.63;2.17;;;;;;;19.70;46.71;97512.28;4862505;29;20702;-81
2022/01/06 10:31:06;;;;;;;4.97;2.20;;;;;;;19.68;46.45;97519.88;4862366;29;20282;-80
2022/01/06 10:33:35;;;;;;;2.20;2.00;;;;;;;18.91;46.85;97381.06;4864515;29;20688;-80
2022/01/06 10:36:06;;;;;;;2.30;2.00;;;;;;;19.69;46.55;97524.16;4881314;29;20217;-81
2022/01/06 10:38:33;;;;;;;3.07;2.30;;;;;;;18.77;46.76;97354.19;4881067;29;20724;-80
2022/01/06 10:41:13;;;;;;;3.50;2.23;;;;;;;19.68;46.98;97512.22;4865819;29;20222;-80
2022/01/06 10:43:40;;;;;;;2.70;2.17;;;;;;;19.57;47.30;97489.72;4859252;29;20544;-78
2022/01/06 10:46:07;;;;;;;2.80;2.10;;;;;;;19.56;46.86;97493.06;4869160;29;20258;-79
2022/01/06 10:48:34;;;;;;;3.63;2.30;;;;;;;19.68;47.49;97519.00;4847367;29;20385;-82
2022/01/06 10:51:01;;;;;;;2.40;2.00;;;;;;;19.67;47.36;97515.59;4862186;29;20213;-82
2022/01/06 10:53:28;;;;;;;2.53;2.00;;;;;;;18.77;47.26;97364.38;4858176;29;20206;-79
2022/01/06 10:55:54;;;;;;;2.43;2.10;;;;;;;18.71;47.32;97364.16;4855377;29;20304;-79
2022/01/06 10:58:22;;;;;;;2.57;1.90;;;;;;;18.56;47.35;97334.75;4875074;29;20245;-81
2022/01/06 11:00:53;;;;;;;2.60;1.93;;;;;;;18.86;47.35;97380.00;4887628;29;20233;-85
2022/01/06 11:03:21;;;;;;;2.40;1.90;;;;;;;19.65;47.69;97521.44;4857194;29;20714;-88
2022/01/06 11:05:52;;;;;;;3.97;2.10;;;;;;;16.75;47.29;97031.91;4900765;29;20294;-88
2022/01/06 11:08:21;;;;;;;2.33;1.90;;;;;;;19.36;47.42;97478.75;4882925;29;20222;-87
2022/01/06 11:11:01;;;;;;;3.43;2.00;;;;;;;17.86;47.66;97230.25;4882732;29;20254;-86
2022/01/06 11:13:31;;;;;;;1.83;1.73;;;;;;;18.63;47.63;97369.78;4854978;29;20289;-90
2022/01/06 11:15:58;;;;;;;2.97;2.37;;;;;;;18.77;47.70;97377.13;4851272;29;20274;-88
2022/01/06 11:18:25;;;;;;;3.03;2.00;;;;;;;18.56;47.81;97338.13;4882715;29;20308;-86
2022/01/06 11:20:51;;;;;;;3.37;1.97;;;;;;;18.86;47.72;97396.97;4851201;29;20732;-88
2022/01/06 11:23:22;;;;;;;1.97;1.77;;;;;;;19.64;47.77;97529.91;4866086;29;20214;-80
2022/01/06 11:26:11;;;;;;;2.57;1.70;;;;;;;18.67;47.98;97387.78;4897695;29;20210;-82
2022/01/06 11:28:38;;;;;;;2.57;1.93;;;;;;;18.59;47.93;97370.47;4852350;29;20241;-81
2022/01/06 11:31:21;;;;;;;2.03;1.87;;;;;;;18.95;47.39;97430.44;4866726;29;20198;-82
2022/01/06 11:33:49;;;;;;;2.40;2.10;;;;;;;18.46;47.65;97353.88;4868926;29;20281;-84
2022/01/06 11:36:25;;;;;;;2.10;1.90;;;;;;;19.67;47.64;97556.38;4881776;29;20233;-81
2022/01/06 11:38:52;;;;;;;3.40;2.37;;;;;;;18.23;47.71;97307.16;4880752;29;20253;-83
2022/01/06 11:41:19;;;;;;;4.20;2.37;;;;;;;18.58;47.50;97367.06;4865584;29;20230;-80
2022/01/06 11:43:46;;;;;;;3.63;2.33;;;;;;;18.91;47.63;97418.38;4880227;29;20202;-80
2022/01/06 11:46:13;;;;;;;3.77;2.73;;;;;;;19.13;47.66;97454.88;4849953;29;20285;-80
2022/01/06 11:48:53;;;;;;;2.67;2.33;;;;;;;18.10;47.69;97273.56;4879289;29;20286;-81
2022/01/06 11:51:31;;;;;;;4.90;2.27;;;;;;;18.02;47.75;97260.56;4893344;29;20221;-81
2022/01/06 11:53:58;;;;;;;5.57;2.63;;;;;;;19.70;47.65;97553.06;4898075;29;20224;-82
2022/01/06 11:56:25;;;;;;;4.50;2.50;;;;;;;19.28;47.63;97481.00;4915616;29;20205;-79
2022/01/06 11:59:02;;;;;;;4.47;2.43;;;;;;;18.57;47.50;97349.19;4882781;29;20312;-80
2022/01/06 12:01:43;;;;;;;3.67;2.40;;;;;;;19.70;47.66;97543.75;4880442;29;20253;-79
2022/01/06 12:04:21;;;;;;;4.43;2.73;;;;;;;19.71;47.71;97591.38;4889407;29;20745;-80
2022/01/06 12:06:48;;;;;;;6.10;2.90;;;;;;;19.11;47.80;97445.47;4856550;29;20209;-81
2022/01/06 12:09:22;;;;;;;4.30;2.93;;;;;;;18.69;47.59;97382.75;4849728;29;20274;-79
2022/01/06 12:12:04;;;;;;;5.33;3.07;;;;;;;17.31;47.26;97136.53;4879662;29;20289;-80
2022/01/06 12:14:30;;;;;;;7.97;3.93;;;;;;;17.92;46.35;97244.88;4849071;29;20206;-81
2022/01/06 12:17:07;;;;;;;9.73;4.07;;;;;;;18.66;46.86;97368.22;4862912;29;20205;-88
2022/01/06 12:19:34;;;;;;;8.93;4.93;;;;;;;18.13;46.65;97291.47;4881335;29;20201;-87
2022/01/06 12:22:03;;;;;;;8.47;4.10;;;;;;;17.00;47.43;97086.22;4880450;29;20218;-87